Time;durP1;ratioP1;P1;durP2;ratioP2;P2;SDS_P1;SDS_P2;PMS_P1;PMS_P2;Temp;Humidity;BMP_temperature;BMP_pressure;BME280_temperature;BME280_humidity;BME280_pressure;Samples;Min_cycle;Max_cycle;Signal;HPM_P1;HPM_P2
2022/11/10 00:02:36;;;;;;;22.80;14.63;;;;;;;;;;5134778;27;20027;-75
2022/11/10 00:05:21;;;;;;;26.67;15.23;;;;;;;;;;5106465;27;20342;-76
2022/11/10 00:08:09;;;;;;;28.80;16.83;;;;;;;;;;5134510;27;20019;-76
2022/11/10 00:10:57;;;;;;;52.15;28.75;;;;;;;;;;5134691;27;20042;-75
2022/11/10 00:17:05;;;;;;;59.60;34.92;;;;;;;;;;5135632;27;20015;-76
2022/11/10 00:19:51;;;;;;;62.63;33.75;;;;;;;;;;5134084;28;20020;-76
2022/11/10 00:22:37;;;;;;;62.70;35.72;;;;;;;;;;5135685;27;20023;-76
2022/11/10 00:25:23;;;;;;;65.43;37.33;;;;;;;;;;5134687;28;20380;-76
2022/11/10 00:28:09;;;;;;;65.00;37.03;;;;;;;;;;5119554;28;20019;-76
2022/11/10 00:30:54;;;;;;;58.63;35.00;;;;;;;;;;5135884;27;20342;-76
2022/11/10 00:33:41;;;;;;;58.17;33.28;;;;;;;;;;5138862;27;20080;-76
2022/11/10 00:36:27;;;;;;;60.28;33.38;;;;;;;;;;5138508;27;20015;-76
2022/11/10 00:39:13;;;;;;;53.38;31.63;;;;;;;;;;5139101;27;20152;-76
2022/11/10 00:41:58;;;;;;;45.95;26.98;;;;;;;;;;5137837;27;20023;-76
2022/11/10 00:44:44;;;;;;;40.20;24.25;;;;;;;;;;5138295;27;20077;-75
2022/11/10 00:47:29;;;;;;;38.63;23.15;;;;;;;;;;5137869;27;20015;-76
2022/11/10 00:50:15;;;;;;;39.05;22.15;;;;;;;;;;5137743;27;20061;-76
2022/11/10 00:53:01;;;;;;;36.20;21.98;;;;;;;;;;5138741;27;20029;-76
2022/11/10 00:55:47;;;;;;;40.53;22.33;;;;;;;;;;5138345;27;20431;-76
2022/11/10 00:58:33;;;;;;;40.25;24.88;;;;;;;;;;5138629;27;20019;-76
2022/11/10 01:01:19;;;;;;;36.70;22.27;;;;;;;;;;5137898;27;20053;-76
2022/11/10 01:04:05;;;;;;;34.92;21.95;;;;;;;;;;5137626;27;20098;-77
2022/11/10 01:06:51;;;;;;;41.65;23.45;;;;;;;;;;5137642;27;20026;-76
2022/11/10 01:09:37;;;;;;;38.22;22.73;;;;;;;;;;5137102;27;20352;-76
2022/11/10 01:12:22;;;;;;;40.30;24.15;;;;;;;;;;5136190;27;20019;-76
2022/11/10 01:15:08;;;;;;;43.63;25.00;;;;;;;;;;5137880;27;20341;-76
2022/11/10 01:17:55;;;;;;;42.45;25.25;;;;;;;;;;5137675;27;20160;-76
2022/11/10 01:20:40;;;;;;;38.00;22.75;;;;;;;;;;5137534;27;20326;-77
2022/11/10 01:23:26;;;;;;;40.28;23.27;;;;;;;;;;5137816;27;20453;-75
2022/11/10 01:26:12;;;;;;;43.83;24.00;;;;;;;;;;5138615;27;20042;-76
2022/11/10 01:28:58;;;;;;;42.88;25.40;;;;;;;;;;5137414;27;20019;-77
2022/11/10 01:31:43;;;;;;;48.22;25.88;;;;;;;;;;5124294;27;20023;-77
2022/11/10 01:34:29;;;;;;;49.33;27.45;;;;;;;;;;5123490;27;20114;-76
2022/11/10 01:37:14;;;;;;;48.45;28.88;;;;;;;;;;5137706;27;20020;-76
2022/11/10 01:40:00;;;;;;;44.42;26.92;;;;;;;;;;5123609;27;20498;-76
2022/11/10 01:42:50;;;;;;;47.55;28.40;;;;;;;;;;5136814;27;20411;-76
2022/11/10 01:45:48;;;;;;;44.72;26.90;;;;;;;;;;5123003;27;20054;-76
2022/11/10 01:48:36;;;;;;;43.65;27.65;;;;;;;;;;5136863;27;20352;-75
2022/11/10 01:51:25;;;;;;;48.33;28.30;;;;;;;;;;5136662;27;20023;-75
2022/11/10 01:54:13;;;;;;;48.88;27.80;;;;;;;;;;5136679;27;20083;-75
2022/11/10 01:57:00;;;;;;;49.40;27.95;;;;;;;;;;5136672;27;20019;-76
2022/11/10 01:59:46;;;;;;;48.20;27.27;;;;;;;;;;5136399;27;20034;-76
2022/11/10 02:02:36;;;;;;;48.40;28.60;;;;;;;;;;5136407;27;20050;-77
2022/11/10 02:05:23;;;;;;;46.08;26.80;;;;;;;;;;5136546;27;20020;-76
2022/11/10 02:08:09;;;;;;;50.70;25.50;;;;;;;;;;5141248;27;20039;-76
2022/11/10 02:10:55;;;;;;;40.50;23.10;;;;;;;;;;5139788;27;20114;-76
2022/11/10 02:13:41;;;;;;;37.65;22.70;;;;;;;;;;5136555;27;20353;-75
2022/11/10 02:16:26;;;;;;;39.67;22.67;;;;;;;;;;5135987;27;20099;-75
2022/11/10 02:19:20;;;;;;;37.53;22.25;;;;;;;;;;5121184;27;20022;-76
2022/11/10 02:22:05;;;;;;;45.30;22.25;;;;;;;;;;5136456;27;20356;-75
2022/11/10 02:24:51;;;;;;;39.75;22.67;;;;;;;;;;5135812;27;20035;-76
2022/11/10 02:27:36;;;;;;;38.08;22.85;;;;;;;;;;5140431;27;20023;-76
2022/11/10 02:30:22;;;;;;;41.65;23.35;;;;;;;;;;5139364;27;20474;-75
2022/11/10 02:33:08;;;;;;;42.92;25.85;;;;;;;;;;5135648;27;20034;-75
2022/11/10 02:35:53;;;;;;;43.67;24.63;;;;;;;;;;5135552;27;20012;-75
2022/11/10 02:38:39;;;;;;;45.67;23.80;;;;;;;;;;5136569;27;20026;-75
2022/11/10 02:41:24;;;;;;;41.22;25.30;;;;;;;;;;5135891;27;20019;-76
2022/11/10 02:44:10;;;;;;;49.55;29.38;;;;;;;;;;5136250;27;20075;-74
2022/11/10 02:46:56;;;;;;;56.13;33.15;;;;;;;;;;5136678;27;20026;-75
2022/11/10 02:49:43;;;;;;;58.10;34.33;;;;;;;;;;5136132;27;20034;-75
2022/11/10 02:52:29;;;;;;;61.25;34.97;;;;;;;;;;5136083;27;20368;-75
2022/11/10 02:55:14;;;;;;;58.65;34.35;;;;;;;;;;5136686;27;20224;-75
2022/11/10 02:58:00;;;;;;;58.58;34.47;;;;;;;;;;5120544;27;20015;-76
2022/11/10 03:00:46;;;;;;;56.22;33.90;;;;;;;;;;5135708;27;20341;-76
2022/11/10 03:03:31;;;;;;;57.55;34.05;;;;;;;;;;5135928;27;20030;-76
2022/11/10 03:06:17;;;;;;;59.13;33.72;;;;;;;;;;5136662;27;20403;-75
2022/11/10 03:09:03;;;;;;;57.67;33.22;;;;;;;;;;5135269;27;20473;-75
2022/11/10 03:11:48;;;;;;;56.80;32.63;;;;;;;;;;5134744;27;20436;-76
2022/11/10 03:14:34;;;;;;;67.25;33.83;;;;;;;;;;5135796;27;20163;-76
2022/11/10 03:17:20;;;;;;;60.33;33.78;;;;;;;;;;5135622;27;20019;-76
2022/11/10 03:20:06;;;;;;;52.58;31.75;;;;;;;;;;5135120;27;20022;-76
2022/11/10 03:22:51;;;;;;;57.35;32.22;;;;;;;;;;5136310;27;20034;-76
2022/11/10 03:25:37;;;;;;;63.05;34.13;;;;;;;;;;5134879;27;20095;-77
2022/11/10 03:28:23;;;;;;;62.10;32.50;;;;;;;;;;5134678;27;20027;-76
2022/11/10 03:31:08;;;;;;;64.75;33.40;;;;;;;;;;5135608;27;20019;-76
2022/11/10 03:33:54;;;;;;;52.55;31.63;;;;;;;;;;5135715;27;20011;-75
2022/11/10 03:36:39;;;;;;;53.50;31.05;;;;;;;;;;5135148;27;20323;-76
2022/11/10 03:39:25;;;;;;;57.30;30.38;;;;;;;;;;5135127;27;20030;-75
2022/11/10 03:42:10;;;;;;;58.38;30.90;;;;;;;;;;5135180;27;20334;-76
2022/11/10 03:44:56;;;;;;;58.40;29.88;;;;;;;;;;5134561;27;20511;-76
2022/11/10 03:47:48;;;;;;;56.15;30.65;;;;;;;;;;5135975;27;20030;-76
2022/11/10 03:50:34;;;;;;;55.55;30.10;;;;;;;;;;5134836;27;20406;-75
2022/11/10 03:53:19;;;;;;;50.90;28.70;;;;;;;;;;5135952;27;20390;-76
2022/11/10 03:56:05;;;;;;;51.17;28.17;;;;;;;;;;5134456;27;20136;-75
2022/11/10 03:58:51;;;;;;;48.05;28.40;;;;;;;;;;5134213;27;20023;-76
2022/11/10 04:01:36;;;;;;;51.75;29.30;;;;;;;;;;5134877;27;20091;-75
2022/11/10 04:10:30;;;;;;;50.15;31.15;;;;;;;;;;5136315;27;20091;-76
2022/11/10 04:16:20;;;;;;;53.17;30.08;;;;;;;;;;5135613;27;20016;-75
2022/11/10 04:19:05;;;;;;;54.20;32.22;;;;;;;;;;5135580;28;20038;-75
2022/11/10 04:21:51;;;;;;;53.35;30.80;;;;;;;;;;5134594;28;20424;-74
2022/11/10 04:24:37;;;;;;;58.13;32.63;;;;;;;;;;5134057;28;20023;-77
2022/11/10 04:27:22;;;;;;;53.95;30.58;;;;;;;;;;5134033;28;20019;-77
2022/11/10 04:30:08;;;;;;;51.15;30.85;;;;;;;;;;5134143;28;20027;-76
2022/11/10 04:32:54;;;;;;;50.38;28.10;;;;;;;;;;5119404;28;20019;-76
2022/11/10 04:35:39;;;;;;;42.22;25.63;;;;;;;;;;5134516;28;20054;-76
2022/11/10 04:38:25;;;;;;;46.38;25.30;;;;;;;;;;5134096;28;20026;-77
2022/11/10 04:41:11;;;;;;;38.70;23.40;;;;;;;;;;5119764;28;20023;-76
2022/11/10 04:43:57;;;;;;;40.10;22.40;;;;;;;;;;5134814;27;20477;-75
2022/11/10 04:46:43;;;;;;;40.55;22.60;;;;;;;;;;5134303;28;20034;-77
2022/11/10 04:49:28;;;;;;;38.30;22.05;;;;;;;;;;5133900;28;20023;-76
2022/11/10 04:52:14;;;;;;;37.85;22.40;;;;;;;;;;5134354;28;20448;-77
2022/11/10 04:55:00;;;;;;;45.50;21.45;;;;;;;;;;5134366;28;20019;-77
2022/11/10 04:57:45;;;;;;;36.35;21.23;;;;;;;;;;5134383;28;20015;-77
2022/11/10 05:00:31;;;;;;;36.70;21.13;;;;;;;;;;5135176;28;20011;-75
2022/11/10 05:03:16;;;;;;;36.50;22.00;;;;;;;;;;5137794;28;20019;-76
2022/11/10 05:06:02;;;;;;;37.90;20.60;;;;;;;;;;5120557;28;20023;-77
2022/11/10 05:08:48;;;;;;;34.00;20.55;;;;;;;;;;5133667;28;20023;-77
2022/11/10 05:11:34;;;;;;;37.88;20.25;;;;;;;;;;5119025;28;20076;-76
2022/11/10 05:14:19;;;;;;;35.45;19.83;;;;;;;;;;5134212;28;20023;-75
2022/11/10 05:17:05;;;;;;;37.05;20.95;;;;;;;;;;5136364;27;20030;-76
2022/11/10 05:19:50;;;;;;;33.85;20.15;;;;;;;;;;5136905;27;20106;-75
2022/11/10 05:22:36;;;;;;;34.22;21.02;;;;;;;;;;5138665;27;20018;-74
2022/11/10 05:25:22;;;;;;;33.72;19.73;;;;;;;;;;5138993;27;20023;-75
2022/11/10 05:28:09;;;;;;;39.17;19.95;;;;;;;;;;5142844;27;20026;-76
2022/11/10 05:30:55;;;;;;;35.13;19.55;;;;;;;;;;5138269;27;20019;-76
2022/11/10 05:33:40;;;;;;;34.80;20.52;;;;;;;;;;5137217;27;20066;-75
2022/11/10 05:36:26;;;;;;;32.55;19.42;;;;;;;;;;5136167;27;20026;-74
2022/11/10 05:39:11;;;;;;;40.90;21.48;;;;;;;;;;5137192;27;20364;-74
2022/11/10 05:41:57;;;;;;;35.53;20.58;;;;;;;;;;5137354;27;20023;-75
2022/11/10 05:44:42;;;;;;;36.10;20.30;;;;;;;;;;5136104;27;20370;-76
2022/11/10 05:47:28;;;;;;;39.55;20.98;;;;;;;;;;5138730;27;20035;-75
2022/11/10 05:50:14;;;;;;;47.60;21.27;;;;;;;;;;5136465;27;20042;-75
2022/11/10 05:52:59;;;;;;;38.65;20.63;;;;;;;;;;5121812;27;20023;-76
2022/11/10 05:55:45;;;;;;;39.88;20.83;;;;;;;;;;5136427;27;20023;-76
2022/11/10 05:58:31;;;;;;;37.17;21.23;;;;;;;;;;5136741;27;20053;-76
2022/11/10 06:01:16;;;;;;;40.38;21.85;;;;;;;;;;5136503;27;20357;-74
2022/11/10 06:04:02;;;;;;;39.53;22.00;;;;;;;;;;5136743;27;20019;-76
2022/11/10 06:06:47;;;;;;;34.80;21.20;;;;;;;;;;5136582;27;20023;-75
2022/11/10 06:09:33;;;;;;;39.80;21.98;;;;;;;;;;5136445;27;20117;-76
2022/11/10 06:12:20;;;;;;;40.85;22.58;;;;;;;;;;5122674;27;20349;-75
2022/11/10 06:15:07;;;;;;;37.95;22.05;;;;;;;;;;5136296;27;20046;-75
2022/11/10 06:17:52;;;;;;;40.72;21.52;;;;;;;;;;5121730;27;20354;-75
2022/11/10 06:20:38;;;;;;;35.03;20.60;;;;;;;;;;5137154;27;20342;-74
2022/11/10 06:23:24;;;;;;;33.40;20.17;;;;;;;;;;5122705;27;20023;-75
2022/11/10 06:26:09;;;;;;;41.63;23.63;;;;;;;;;;5136064;27;20027;-74
2022/11/10 06:28:55;;;;;;;55.10;26.20;;;;;;;;;;5134823;27;20361;-74
2022/11/10 06:31:40;;;;;;;43.03;24.73;;;;;;;;;;5135793;27;20019;-75
2022/11/10 06:34:26;;;;;;;46.90;25.23;;;;;;;;;;5136407;27;20019;-75
2022/11/10 06:37:12;;;;;;;47.92;26.50;;;;;;;;;;5137506;27;20019;-75
2022/11/10 06:39:57;;;;;;;50.33;28.98;;;;;;;;;;5121762;27;20030;-75
2022/11/10 06:42:43;;;;;;;50.92;27.13;;;;;;;;;;5136101;27;20106;-74
2022/11/10 06:45:28;;;;;;;45.25;27.35;;;;;;;;;;5135533;27;20039;-75
2022/11/10 06:48:14;;;;;;;50.38;27.83;;;;;;;;;;5135425;27;20019;-74
2022/11/10 06:51:00;;;;;;;46.80;28.17;;;;;;;;;;5121050;27;20023;-75
2022/11/10 06:53:47;;;;;;;46.88;26.30;;;;;;;;;;5135441;27;20051;-74
2022/11/10 06:56:33;;;;;;;51.20;26.73;;;;;;;;;;5122345;27;20019;-75
2022/11/10 06:59:19;;;;;;;48.92;26.02;;;;;;;;;;5135876;27;20023;-75
2022/11/10 07:02:05;;;;;;;45.65;25.55;;;;;;;;;;5121776;27;20053;-75
2022/11/10 07:04:50;;;;;;;44.83;25.80;;;;;;;;;;5135747;27;20023;-75
2022/11/10 07:07:36;;;;;;;50.30;26.00;;;;;;;;;;5120962;27;20538;-75
2022/11/10 07:10:21;;;;;;;44.88;25.42;;;;;;;;;;5120815;27;20023;-76
2022/11/10 07:13:08;;;;;;;44.10;25.80;;;;;;;;;;5135329;27;20102;-74
2022/11/10 07:15:54;;;;;;;41.45;25.30;;;;;;;;;;5120617;27;20365;-75
2022/11/10 07:18:39;;;;;;;44.97;25.20;;;;;;;;;;5136067;27;20107;-75
2022/11/10 07:21:25;;;;;;;43.70;25.50;;;;;;;;;;5135113;27;20027;-75
2022/11/10 07:24:11;;;;;;;38.78;23.85;;;;;;;;;;5135949;27;20461;-74
2022/11/10 07:26:56;;;;;;;40.42;24.25;;;;;;;;;;5134224;27;20108;-75
2022/11/10 07:29:42;;;;;;;41.97;26.50;;;;;;;;;;5135829;27;20357;-75
2022/11/10 07:32:27;;;;;;;42.88;24.35;;;;;;;;;;5136204;27;20023;-75
2022/11/10 07:35:13;;;;;;;44.28;25.60;;;;;;;;;;5134205;27;20429;-75
2022/11/10 07:38:03;;;;;;;40.35;23.88;;;;;;;;;;5134735;27;20129;-74
2022/11/10 07:40:50;;;;;;;37.40;23.88;;;;;;;;;;5134397;27;20029;-75
2022/11/10 07:43:35;;;;;;;42.50;24.00;;;;;;;;;;5134312;27;20050;-75
2022/11/10 07:46:21;;;;;;;37.95;23.67;;;;;;;;;;5134780;27;20488;-74
2022/11/10 07:49:07;;;;;;;45.70;23.15;;;;;;;;;;5135260;27;20035;-76
2022/11/10 07:51:52;;;;;;;37.80;21.90;;;;;;;;;;5135247;27;20565;-76
2022/11/10 07:54:38;;;;;;;36.38;22.58;;;;;;;;;;5135024;27;20034;-76
2022/11/10 07:57:24;;;;;;;35.47;21.70;;;;;;;;;;5135219;27;20015;-75
2022/11/10 08:00:11;;;;;;;35.80;21.75;;;;;;;;;;5133783;27;20075;-76
2022/11/10 08:03:01;;;;;;;36.85;21.50;;;;;;;;;;5120309;27;20026;-75
2022/11/10 08:05:47;;;;;;;36.42;21.10;;;;;;;;;;5134833;27;20106;-76
2022/11/10 08:08:32;;;;;;;37.95;21.48;;;;;;;;;;5135122;27;20015;-78
2022/11/10 08:11:18;;;;;;;42.00;22.05;;;;;;;;;;5133853;27;20395;-76
2022/11/10 08:14:03;;;;;;;45.00;23.30;;;;;;;;;;5136658;28;20071;-76
2022/11/10 08:16:49;;;;;;;40.50;21.92;;;;;;;;;;5141251;28;20007;-76
2022/11/10 08:19:35;;;;;;;38.50;22.38;;;;;;;;;;5124320;28;20019;-76
2022/11/10 08:22:20;;;;;;;38.42;22.92;;;;;;;;;;5133969;28;20376;-75
2022/11/10 08:25:06;;;;;;;40.90;23.50;;;;;;;;;;5119932;28;20080;-75
2022/11/10 08:27:58;;;;;;;37.38;22.98;;;;;;;;;;5118901;28;20026;-75
2022/11/10 08:30:45;;;;;;;52.20;24.20;;;;;;;;;;5133189;28;20019;-76
2022/11/10 08:33:30;;;;;;;41.63;24.35;;;;;;;;;;5133874;28;20384;-76
2022/11/10 08:36:16;;;;;;;36.38;22.85;;;;;;;;;;5137338;28;20055;-76
2022/11/10 08:39:01;;;;;;;36.40;23.35;;;;;;;;;;5140675;28;20030;-75
2022/11/10 08:41:47;;;;;;;31.67;20.90;;;;;;;;;;5135891;27;20102;-75
2022/11/10 08:44:33;;;;;;;36.20;23.27;;;;;;;;;;5133710;28;20053;-76
2022/11/10 08:47:18;;;;;;;34.08;21.90;;;;;;;;;;5133846;28;20069;-75
2022/11/10 08:50:04;;;;;;;31.17;21.10;;;;;;;;;;5133603;28;20027;-76
2022/11/10 08:52:50;;;;;;;30.17;20.50;;;;;;;;;;5137059;27;20023;-75
2022/11/10 08:55:36;;;;;;;39.78;23.77;;;;;;;;;;5137915;27;20084;-75
2022/11/10 08:58:22;;;;;;;43.97;21.80;;;;;;;;;;5137784;27;20129;-76
2022/11/10 09:01:08;;;;;;;34.63;22.25;;;;;;;;;;5137365;27;20064;-76
2022/11/10 09:03:54;;;;;;;36.20;23.17;;;;;;;;;;5137670;27;20027;-76
2022/11/10 09:06:39;;;;;;;32.03;21.30;;;;;;;;;;5137479;27;20038;-76
2022/11/10 09:09:27;;;;;;;36.42;21.55;;;;;;;;;;5138090;27;20448;-76
2022/11/10 09:12:13;;;;;;;32.97;21.20;;;;;;;;;;5136826;27;20027;-75
2022/11/10 09:14:59;;;;;;;34.97;22.50;;;;;;;;;;5123630;27;20015;-76
2022/11/10 09:17:44;;;;;;;32.30;21.60;;;;;;;;;;5137743;27;20375;-76
2022/11/10 09:20:31;;;;;;;31.10;20.80;;;;;;;;;;5122779;27;20019;-76
2022/11/10 09:23:17;;;;;;;33.90;21.35;;;;;;;;;;5137888;27;20023;-75
2022/11/10 09:26:06;;;;;;;31.85;20.83;;;;;;;;;;5121831;27;20038;-75
2022/11/10 09:28:52;;;;;;;33.20;21.20;;;;;;;;;;5138299;27;20047;-76
2022/11/10 09:31:37;;;;;;;34.92;22.05;;;;;;;;;;5138325;27;20040;-76
2022/11/10 09:34:23;;;;;;;35.45;21.85;;;;;;;;;;5123759;27;20026;-76
2022/11/10 09:37:08;;;;;;;30.92;20.80;;;;;;;;;;5138061;27;20106;-76
2022/11/10 09:39:54;;;;;;;34.38;20.15;;;;;;;;;;5137044;27;20023;-74
2022/11/10 09:42:40;;;;;;;34.00;20.17;;;;;;;;;;5122960;27;20101;-76
2022/11/10 09:45:28;;;;;;;33.83;21.25;;;;;;;;;;5149910;27;20050;-76
2022/11/10 09:48:13;;;;;;;29.55;19.15;;;;;;;;;;5157593;27;20029;-76
2022/11/10 09:51:19;;;;;;;33.00;21.95;;;;;;;;;;5158221;27;20065;-76
2022/11/10 09:54:18;;;;;;;29.00;20.77;;;;;;;;;;5156978;27;20037;-76
2022/11/10 09:57:05;;;;;;;30.23;20.00;;;;;;;;;;5157012;27;20019;-76
2022/11/10 09:59:51;;;;;;;30.05;20.20;;;;;;;;;;5157664;27;20026;-75
2022/11/10 10:02:47;;;;;;;29.20;20.98;;;;;;;;;;5157194;27;20027;-76
2022/11/10 10:05:51;;;;;;;33.72;21.77;;;;;;;;;;5157246;27;20363;-76
2022/11/10 10:08:39;;;;;;;34.05;22.23;;;;;;;;;;5157762;27;20014;-76
2022/11/10 10:11:31;;;;;;;34.42;21.30;;;;;;;;;;5157580;27;20444;-76
2022/11/10 10:14:21;;;;;;;34.05;21.52;;;;;;;;;;5141719;27;20110;-75
2022/11/10 10:17:06;;;;;;;32.63;21.23;;;;;;;;;;5157346;27;20071;-76
2022/11/10 10:19:56;;;;;;;37.60;21.95;;;;;;;;;;5141584;27;20413;-76
2022/11/10 10:22:57;;;;;;;33.55;22.70;;;;;;;;;;5156648;27;20106;-75
2022/11/10 10:25:44;;;;;;;37.45;22.65;;;;;;;;;;5157180;27;20029;-76
2022/11/10 10:28:37;;;;;;;30.75;20.45;;;;;;;;;;5141290;27;20472;-75
2022/11/10 10:31:24;;;;;;;37.20;23.00;;;;;;;;;;5156427;27;20026;-76
2022/11/10 10:34:12;;;;;;;36.88;23.63;;;;;;;;;;5156453;27;20067;-77
2022/11/10 10:36:57;;;;;;;30.17;20.90;;;;;;;;;;5157320;27;20015;-76
2022/11/10 10:39:44;;;;;;;33.40;21.83;;;;;;;;;;5156936;27;20046;-76
2022/11/10 10:42:32;;;;;;;32.92;21.77;;;;;;;;;;5156873;27;20022;-76
2022/11/10 10:45:20;;;;;;;37.72;23.40;;;;;;;;;;5140533;27;20402;-76
2022/11/10 10:48:28;;;;;;;42.50;26.55;;;;;;;;;;5155819;27;20091;-76
2022/11/10 10:51:27;;;;;;;36.33;23.88;;;;;;;;;;5156286;27;20432;-76
2022/11/10 10:54:32;;;;;;;35.15;22.95;;;;;;;;;;5156224;27;20151;-76
2022/11/10 10:57:19;;;;;;;31.73;21.98;;;;;;;;;;5142532;27;20384;-76
2022/11/10 11:00:11;;;;;;;35.83;22.02;;;;;;;;;;5156756;27;20019;-76
2022/11/10 11:03:04;;;;;;;38.97;23.35;;;;;;;;;;5157042;27;20381;-76
2022/11/10 11:06:19;;;;;;;40.47;23.83;;;;;;;;;;5156204;27;20325;-76
2022/11/10 11:09:08;;;;;;;37.45;23.27;;;;;;;;;;5150354;27;20036;-77
2022/11/10 11:12:10;;;;;;;36.33;22.02;;;;;;;;;;5156433;27;20083;-77
2022/11/10 11:15:14;;;;;;;31.95;21.85;;;;;;;;;;5156373;27;20022;-76
2022/11/10 11:18:01;;;;;;;31.63;21.35;;;;;;;;;;5156510;27;20034;-76
2022/11/10 11:21:01;;;;;;;35.40;22.58;;;;;;;;;;5155842;27;20310;-76
2022/11/10 11:23:56;;;;;;;31.15;20.45;;;;;;;;;;5141190;27;20054;-74
2022/11/10 11:26:47;;;;;;;32.80;22.25;;;;;;;;;;5140381;27;20079;-75
2022/11/10 11:29:32;;;;;;;34.17;21.65;;;;;;;;;;5140437;27;20029;-75
2022/11/10 11:32:27;;;;;;;34.40;21.65;;;;;;;;;;5139905;27;20046;-75
2022/11/10 11:35:12;;;;;;;37.22;24.55;;;;;;;;;;5140249;27;20428;-75
2022/11/10 11:37:58;;;;;;;37.78;24.85;;;;;;;;;;5155548;27;20018;-76
2022/11/10 11:41:02;;;;;;;34.00;22.48;;;;;;;;;;5155758;27;20013;-77
2022/11/10 11:43:54;;;;;;;34.97;21.33;;;;;;;;;;5155521;27;20046;-76
2022/11/10 11:46:43;;;;;;;34.92;22.23;;;;;;;;;;5140128;27;20142;-76
2022/11/10 11:49:55;;;;;;;49.45;21.20;;;;;;;;;;5154793;27;20054;-76
2022/11/10 11:52:40;;;;;;;39.47;22.17;;;;;;;;;;5134528;27;20027;-75
2022/11/10 11:55:52;;;;;;;31.50;21.17;;;;;;;;;;5139987;27;20025;-76
2022/11/10 11:58:42;;;;;;;34.17;20.15;;;;;;;;;;5154757;27;20011;-76
2022/11/10 12:01:27;;;;;;;38.50;22.08;;;;;;;;;;5155123;27;20018;-75
2022/11/10 12:04:21;;;;;;;30.63;20.27;;;;;;;;;;5140324;27;20006;-76
2022/11/10 12:07:13;;;;;;;34.58;21.23;;;;;;;;;;5139685;27;20015;-76
2022/11/10 12:10:11;;;;;;;28.63;19.63;;;;;;;;;;5156340;27;20097;-77
2022/11/10 12:13:05;;;;;;;31.45;21.23;;;;;;;;;;5155495;27;20023;-76
2022/11/10 12:15:54;;;;;;;30.52;20.70;;;;;;;;;;5155897;27;20155;-76
2022/11/10 12:18:48;;;;;;;30.42;19.88;;;;;;;;;;5155824;27;20067;-77
2022/11/10 12:21:33;;;;;;;36.80;21.15;;;;;;;;;;5145370;27;20438;-76
2022/11/10 12:24:22;;;;;;;31.92;19.48;;;;;;;;;;5153649;27;20052;-78
2022/11/10 12:27:12;;;;;;;29.30;20.77;;;;;;;;;;5168005;27;20390;-76
2022/11/10 12:30:01;;;;;;;32.55;20.08;;;;;;;;;;5161729;27;20015;-76
2022/11/10 12:32:51;;;;;;;32.05;20.40;;;;;;;;;;5158279;27;20097;-76
2022/11/10 12:35:40;;;;;;;31.35;20.33;;;;;;;;;;5159123;27;20019;-74
2022/11/10 12:38:39;;;;;;;28.58;19.13;;;;;;;;;;5142814;27;20011;-76
2022/11/10 12:41:27;;;;;;;28.77;19.08;;;;;;;;;;5159073;27;20022;-76
2022/11/10 12:44:35;;;;;;;34.30;20.48;;;;;;;;;;5158420;27;20061;-76
2022/11/10 12:47:22;;;;;;;26.45;18.60;;;;;;;;;;5144307;27;20117;-76
2022/11/10 12:50:18;;;;;;;34.75;19.75;;;;;;;;;;5157725;27;20031;-77
2022/11/10 12:53:10;;;;;;;29.45;19.55;;;;;;;;;;5143238;27;20030;-76
2022/11/10 12:55:58;;;;;;;26.10;19.10;;;;;;;;;;5157887;27;20019;-74
2022/11/10 12:58:44;;;;;;;28.88;19.48;;;;;;;;;;5158307;27;20026;-76
2022/11/10 13:01:29;;;;;;;27.00;19.17;;;;;;;;;;5158860;27;20043;-76
2022/11/10 13:04:16;;;;;;;29.48;19.05;;;;;;;;;;5159002;27;20521;-76
2022/11/10 13:07:03;;;;;;;25.45;17.23;;;;;;;;;;5158019;27;20367;-76
2022/11/10 13:09:48;;;;;;;26.45;18.95;;;;;;;;;;5157601;27;20352;-76
2022/11/10 13:12:34;;;;;;;25.73;18.55;;;;;;;;;;5143468;27;20106;-74
2022/11/10 13:15:38;;;;;;;26.02;17.70;;;;;;;;;;5157860;27;20378;-75
2022/11/10 13:18:23;;;;;;;28.38;18.30;;;;;;;;;;5157965;27;20022;-75
2022/11/10 13:21:09;;;;;;;32.42;18.85;;;;;;;;;;5157377;27;20033;-76
2022/11/10 13:24:01;;;;;;;30.15;17.63;;;;;;;;;;5158435;27;20015;-76
2022/11/10 13:26:47;;;;;;;30.98;18.50;;;;;;;;;;5157897;27;20105;-77
2022/11/10 13:29:35;;;;;;;27.20;18.35;;;;;;;;;;5157635;27;20026;-75
2022/11/10 13:32:29;;;;;;;26.85;18.52;;;;;;;;;;5157490;27;20019;-75
2022/11/10 13:35:26;;;;;;;26.02;17.25;;;;;;;;;;5158679;27;20466;-75
2022/11/10 13:38:33;;;;;;;30.33;18.77;;;;;;;;;;5141984;27;20015;-75
2022/11/10 13:41:20;;;;;;;29.60;18.98;;;;;;;;;;5160263;27;20019;-74
2022/11/10 13:44:18;;;;;;;27.92;17.48;;;;;;;;;;5143108;27;20019;-74
2022/11/10 13:47:09;;;;;;;26.15;17.63;;;;;;;;;;5128540;27;20030;-73
2022/11/10 13:50:00;;;;;;;32.38;20.30;;;;;;;;;;5157350;27;20034;-73
2022/11/10 13:52:49;;;;;;;28.13;18.55;;;;;;;;;;5157747;27;20103;-72
2022/11/10 13:55:53;;;;;;;32.60;20.38;;;;;;;;;;5142149;27;20014;-73
2022/11/10 13:58:41;;;;;;;31.70;20.40;;;;;;;;;;5143340;27;20018;-72
2022/11/10 14:01:29;;;;;;;28.30;18.80;;;;;;;;;;5156860;27;20382;-73
2022/11/10 14:04:37;;;;;;;32.28;20.33;;;;;;;;;;5156224;27;20087;-72
2022/11/10 14:07:22;;;;;;;26.05;18.48;;;;;;;;;;5157879;27;20102;-74
2022/11/10 14:10:25;;;;;;;27.70;18.27;;;;;;;;;;5157155;27;20062;-74
2022/11/10 14:13:12;;;;;;;30.73;20.23;;;;;;;;;;5141162;27;20508;-73
2022/11/10 14:15:58;;;;;;;35.83;24.95;;;;;;;;;;5157404;27;20027;-73
2022/11/10 14:18:50;;;;;;;30.20;21.20;;;;;;;;;;5157056;27;20023;-73
2022/11/10 14:21:42;;;;;;;31.40;19.27;;;;;;;;;;5128228;27;20061;-75
2022/11/10 14:24:30;;;;;;;29.75;19.30;;;;;;;;;;5157008;27;20025;-76
2022/11/10 14:27:21;;;;;;;30.92;20.02;;;;;;;;;;5156319;27;20444;-76
2022/11/10 14:30:07;;;;;;;29.73;19.73;;;;;;;;;;5141599;27;20041;-76
2022/11/10 14:33:02;;;;;;;29.90;19.48;;;;;;;;;;5127028;27;20015;-76
2022/11/10 14:35:50;;;;;;;38.70;20.90;;;;;;;;;;5157191;27;20394;-75
2022/11/10 14:38:41;;;;;;;32.85;20.55;;;;;;;;;;5156040;27;20035;-76
2022/11/10 14:41:27;;;;;;;35.15;20.88;;;;;;;;;;5156927;27;20052;-76
2022/11/10 14:44:18;;;;;;;37.33;21.02;;;;;;;;;;5156929;27;20027;-75
2022/11/10 14:47:35;;;;;;;36.55;20.50;;;;;;;;;;5127710;27;20026;-77
2022/11/10 14:50:22;;;;;;;41.10;21.88;;;;;;;;;;5150235;27;20031;-78
2022/11/10 14:53:13;;;;;;;37.25;21.50;;;;;;;;;;5157469;27;20026;-79
2022/11/10 14:56:00;;;;;;;41.17;21.98;;;;;;;;;;5156775;27;20011;-73
2022/11/10 14:58:47;;;;;;;44.28;22.00;;;;;;;;;;5157179;27;20381;-70
2022/11/10 15:01:33;;;;;;;41.65;23.55;;;;;;;;;;5157054;27;20049;-72
2022/11/10 15:04:22;;;;;;;48.15;23.05;;;;;;;;;;5142434;27;20428;-72
2022/11/10 15:07:07;;;;;;;44.35;24.90;;;;;;;;;;5156027;27;20022;-70
2022/11/10 15:10:04;;;;;;;48.88;24.73;;;;;;;;;;5156570;27;20101;-71
2022/11/10 15:12:57;;;;;;;52.97;25.35;;;;;;;;;;5157010;27;20027;-71
2022/11/10 15:15:43;;;;;;;52.90;26.13;;;;;;;;;;5155984;27;20057;-75
2022/11/10 15:18:28;;;;;;;65.30;26.13;;;;;;;;;;5159138;27;20007;-74
2022/11/10 15:21:15;;;;;;;53.20;27.13;;;;;;;;;;5144581;27;20032;-76
2022/11/10 15:24:04;;;;;;;60.28;28.90;;;;;;;;;;5129862;27;20026;-74
2022/11/10 15:26:50;;;;;;;62.97;29.48;;;;;;;;;;5157779;27;20019;-75
2022/11/10 15:29:36;;;;;;;60.15;28.65;;;;;;;;;;5159482;27;20015;-77
2022/11/10 15:32:24;;;;;;;64.03;29.52;;;;;;;;;;5143741;27;20441;-75
2022/11/10 15:35:23;;;;;;;58.97;28.98;;;;;;;;;;5142481;27;20063;-77
2022/11/10 15:38:12;;;;;;;63.45;29.17;;;;;;;;;;5155538;27;20026;-74
2022/11/10 15:41:08;;;;;;;58.70;29.02;;;;;;;;;;5156651;27;20432;-74
2022/11/10 15:43:53;;;;;;;55.25;28.77;;;;;;;;;;5126896;27;20087;-74
2022/11/10 15:46:39;;;;;;;60.95;30.15;;;;;;;;;;5155638;27;20042;-74
2022/11/10 15:49:33;;;;;;;69.78;29.80;;;;;;;;;;5155867;27;20023;-72
2022/11/10 15:52:20;;;;;;;76.75;32.22;;;;;;;;;;5154968;27;20444;-74
2022/11/10 15:55:17;;;;;;;71.18;32.60;;;;;;;;;;5155139;27;20431;-72
2022/11/10 15:58:04;;;;;;;71.85;33.97;;;;;;;;;;5140218;27;20101;-72
2022/11/10 16:00:50;;;;;;;60.90;32.70;;;;;;;;;;5155452;27;20075;-72
2022/11/10 16:03:35;;;;;;;72.03;36.13;;;;;;;;;;5154629;27;20515;-72
2022/11/10 16:06:21;;;;;;;84.10;41.53;;;;;;;;;;5155109;27;20038;-71
2022/11/10 16:09:10;;;;;;;86.60;42.47;;;;;;;;;;5154458;27;20110;-72
2022/11/10 16:11:55;;;;;;;93.10;43.38;;;;;;;;;;5154520;27;20029;-72
2022/11/10 16:14:44;;;;;;;116.32;50.60;;;;;;;;;;5155343;27;20026;-72
2022/11/10 16:17:29;;;;;;;125.07;56.17;;;;;;;;;;5154461;27;20514;-73
2022/11/10 16:20:16;;;;;;;124.63;55.25;;;;;;;;;;5154641;27;20029;-73
2022/11/10 16:23:01;;;;;;;116.88;54.95;;;;;;;;;;5155674;27;20015;-72
2022/11/10 16:25:48;;;;;;;106.18;56.05;;;;;;;;;;5155150;27;20011;-72
2022/11/10 16:28:34;;;;;;;139.02;63.55;;;;;;;;;;5154202;27;20456;-72
2022/11/10 16:31:22;;;;;;;127.28;63.95;;;;;;;;;;5155054;27;20061;-72